Time;durP1;ratioP1;P1;durP2;ratioP2;P2;SDS_P1;SDS_P2;PMS_P1;PMS_P2;Temp;Humidity;BMP_temperature;BMP_pressure;BME280_temperature;BME280_humidity;BME280_pressure;Samples;Min_cycle;Max_cycle;Signal;HPM_P1;HPM_P2
2021/03/14 00:00:52;;;;;;;42.53;20.70;;;;;;;1.40;73.65;101237.75;1666362;86;21325;-56
2021/03/14 00:03:27;;;;;;;38.17;19.30;;;;;;;1.44;73.58;101236.73;1665737;86;21180;-56
2021/03/14 00:06:01;;;;;;;34.03;19.62;;;;;;;1.45;73.64;101231.98;1666590;86;21450;-59
2021/03/14 00:08:34;;;;;;;36.55;19.75;;;;;;;1.46;73.69;101231.11;1665857;86;21160;-56
2021/03/14 00:11:09;;;;;;;29.53;13.80;;;;;;;1.49;73.79;101226.66;1666840;86;21270;-57
2021/03/14 00:13:42;;;;;;;40.50;20.65;;;;;;;1.51;73.72;101226.15;1666119;85;21838;-56
2021/03/14 00:16:15;;;;;;;39.98;20.70;;;;;;;1.50;73.71;101222.34;1686096;85;21279;-56
2021/03/14 00:18:48;;;;;;;42.62;21.25;;;;;;;1.52;73.84;101229.58;1685280;85;21398;-56
2021/03/14 00:21:22;;;;;;;34.03;18.90;;;;;;;1.54;73.89;101227.34;1686138;85;21406;-57
2021/03/14 00:23:54;;;;;;;;;;;;;;;1.55;73.89;101225.16;1687528;85;21919;-57
2021/03/14 00:26:27;;;;;;;45.52;24.40;;;;;;;1.58;73.98;101225.02;1686017;85;20401;-56
2021/03/14 00:29:00;;;;;;;44.17;23.90;;;;;;;1.59;74.09;101228.02;1685647;85;21302;-55
2021/03/14 00:31:34;;;;;;;60.33;26.70;;;;;;;1.58;74.10;101226.76;1686259;85;21338;-56
2021/03/14 00:34:07;;;;;;;28.77;15.18;;;;;;;1.57;74.15;101221.22;1685196;85;21304;-55
2021/03/14 00:36:40;;;;;;;34.38;16.23;;;;;;;1.55;74.28;101220.00;1686022;85;21204;-56
2021/03/14 00:39:13;;;;;;;35.68;18.87;;;;;;;1.54;74.33;101220.03;1685248;85;21232;-55
2021/03/14 00:41:47;;;;;;;68.22;30.00;;;;;;;1.52;74.37;101216.23;1686173;85;21349;-56
2021/03/14 00:44:20;;;;;;;44.40;23.10;;;;;;;1.52;74.50;101212.36;1685245;85;21307;-56
2021/03/14 00:46:53;;;;;;;36.10;20.17;;;;;;;1.58;74.61;101217.73;1686519;85;21290;-56
2021/03/14 00:49:27;;;;;;;32.73;19.77;;;;;;;1.58;74.67;101210.83;1684973;85;21200;-55
2021/03/14 00:52:00;;;;;;;39.18;21.80;;;;;;;1.61;74.62;101212.46;1686187;85;21275;-56
2021/03/14 00:54:35;;;;;;;33.85;19.55;;;;;;;1.58;74.66;101212.13;1685967;84;21811;-56
2021/03/14 00:57:09;;;;;;;38.60;22.75;;;;;;;1.59;74.68;101210.39;1685926;85;21291;-55
2021/03/14 00:59:43;;;;;;;31.25;17.95;;;;;;;1.58;74.75;101215.14;1684952;85;21487;-55
2021/03/14 01:02:16;;;;;;;48.45;25.27;;;;;;;1.57;74.82;101218.64;1686278;85;21193;-56
2021/03/14 01:04:50;;;;;;;38.13;17.87;;;;;;;1.56;74.96;101216.95;1685081;85;21347;-55
2021/03/14 01:07:23;;;;;;;;;;;;;;;1.56;75.06;101209.20;1688649;85;21324;-55
2021/03/14 01:09:56;;;;;;;80.97;37.25;;;;;;;1.55;75.12;101213.55;1685068;85;20233;-55
2021/03/14 01:12:29;;;;;;;37.53;21.57;;;;;;;1.52;75.33;101206.35;1686057;85;21284;-55
2021/03/14 01:15:07;;;;;;;33.83;18.15;;;;;;;1.53;75.37;101208.87;1684229;85;21346;-56
2021/03/14 01:17:42;;;;;;;49.10;24.65;;;;;;;1.51;75.40;101212.40;1676217;85;21311;-55
2021/03/14 01:20:19;;;;;;;35.63;19.25;;;;;;;1.50;75.56;101211.58;1680360;85;21319;-55
2021/03/14 01:22:52;;;;;;;42.65;22.55;;;;;;;1.55;75.66;101213.99;1685346;85;21271;-55
2021/03/14 01:25:25;;;;;;;31.85;19.40;;;;;;;1.59;75.79;101221.56;1684084;85;21375;-57
2021/03/14 01:27:58;;;;;;;36.58;21.65;;;;;;;1.61;75.82;101227.50;1685097;85;21707;-56
2021/03/14 01:30:31;;;;;;;62.13;26.83;;;;;;;1.63;75.90;101228.28;1684199;85;21200;-56
2021/03/14 01:33:04;;;;;;;60.00;27.20;;;;;;;1.63;75.92;101224.41;1685200;85;21299;-55
2021/03/14 01:35:38;;;;;;;45.45;22.67;;;;;;;1.68;75.93;101232.83;1684078;85;21311;-56
2021/03/14 01:38:11;;;;;;;54.27;24.77;;;;;;;1.71;75.93;101234.02;1685391;85;21268;-55
2021/03/14 01:40:45;;;;;;;47.33;24.57;;;;;;;1.73;75.92;101233.95;1684015;85;21408;-56
2021/03/14 01:43:18;;;;;;;33.43;20.27;;;;;;;1.73;75.99;101235.24;1685330;85;21189;-55
2021/03/14 01:45:51;;;;;;;30.30;18.23;;;;;;;1.73;76.04;101237.38;1684218;85;21425;-55
2021/03/14 01:48:26;;;;;;;39.20;21.87;;;;;;;1.70;76.12;101233.61;1685008;85;21312;-57
2021/03/14 01:51:00;;;;;;;32.28;18.35;;;;;;;1.76;76.32;101233.84;1683380;85;21342;-56
2021/03/14 01:53:33;;;;;;;34.50;19.45;;;;;;;1.78;76.43;101234.19;1676127;84;21299;-56
2021/03/14 01:56:07;;;;;;;28.12;17.57;;;;;;;1.78;76.55;101238.50;1681789;85;21365;-57
2021/03/14 01:58:41;;;;;;;34.53;19.62;;;;;;;1.77;76.74;101237.66;1684926;85;21200;-55
2021/03/14 02:01:14;;;;;;;29.77;17.82;;;;;;;1.77;76.90;101231.64;1681378;85;21243;-55
2021/03/14 02:03:48;;;;;;;131.10;55.20;;;;;;;1.80;77.02;101232.38;1683306;85;21221;-59
2021/03/14 02:06:21;;;;;;;35.83;22.03;;;;;;;1.84;77.08;101238.29;1685257;85;21191;-55
2021/03/14 02:08:54;;;;;;;35.88;20.85;;;;;;;1.85;77.04;101237.37;1685404;85;21800;-55
2021/03/14 02:11:29;;;;;;;30.97;18.57;;;;;;;1.84;77.02;101244.27;1683980;85;21347;-57
2021/03/14 02:14:03;;;;;;;30.15;18.98;;;;;;;1.83;77.12;101246.48;1681474;85;21213;-57
2021/03/14 02:16:39;;;;;;;27.13;15.40;;;;;;;1.87;77.22;101244.16;1684686;85;21347;-56
2021/03/14 02:19:19;;;;;;;32.50;18.37;;;;;;;1.93;77.22;101246.53;1684762;85;21320;-56
2021/03/14 02:21:52;;;;;;;37.55;18.67;;;;;;;1.94;77.14;101245.61;1674538;85;21317;-56
2021/03/14 02:24:28;;;;;;;32.63;19.53;;;;;;;1.97;77.03;101245.95;1663400;86;21275;-57
2021/03/14 02:27:05;;;;;;;29.40;17.60;;;;;;;1.97;76.95;101244.22;1666672;86;21290;-56
2021/03/14 02:29:40;;;;;;;32.53;19.87;;;;;;;1.97;76.92;101244.22;1666517;86;21294;-56
2021/03/14 02:32:14;;;;;;;30.05;17.50;;;;;;;1.96;76.88;101251.56;1638004;86;21327;-55
2021/03/14 02:34:52;;;;;;;31.77;18.98;;;;;;;1.99;76.96;101248.87;1666910;86;22075;-55
2021/03/14 02:37:26;;;;;;;33.00;18.85;;;;;;;2.03;76.82;101253.45;1666661;86;21239;-56
2021/03/14 02:39:59;;;;;;;35.37;18.83;;;;;;;2.07;76.79;101249.88;1667026;86;21262;-55
2021/03/14 02:42:32;;;;;;;31.40;18.65;;;;;;;2.14;76.82;101244.86;1667075;86;21267;-55
2021/03/14 02:45:06;;;;;;;28.73;17.67;;;;;;;2.19;76.68;101250.70;1667164;86;21344;-55
2021/03/14 02:47:39;;;;;;;;;;;;;;;2.19;76.54;101243.39;1669062;86;21859;-56
2021/03/14 02:50:17;;;;;;;31.55;18.90;;;;;;;2.20;76.55;101256.72;1665707;86;20174;-55
2021/03/14 02:52:50;;;;;;;39.98;20.90;;;;;;;2.24;76.65;101259.56;1666819;85;21288;-55
2021/03/14 02:55:24;;;;;;;42.88;22.17;;;;;;;2.29;76.52;101262.37;1667021;86;21286;-55
2021/03/14 02:57:57;;;;;;;43.87;20.80;;;;;;;2.36;76.45;101265.11;1666957;86;21160;-55
2021/03/14 03:00:32;;;;;;;38.08;21.77;;;;;;;2.43;76.32;101270.87;1666620;86;21671;-56
2021/03/14 03:03:06;;;;;;;37.73;20.68;;;;;;;2.47;76.23;101269.84;1666605;86;21853;-55
2021/03/14 03:05:39;;;;;;;41.18;20.90;;;;;;;2.54;76.17;101271.27;1666766;86;21306;-56
2021/03/14 03:08:12;;;;;;;39.10;20.93;;;;;;;2.60;75.92;101267.17;1667268;86;21155;-54
2021/03/14 03:10:47;;;;;;;55.58;26.45;;;;;;;2.61;75.78;101268.39;1667013;86;21231;-55
2021/03/14 03:13:20;;;;;;;55.25;24.27;;;;;;;2.63;75.59;101272.20;1666949;86;21200;-54
2021/03/14 03:15:56;;;;;;;66.50;29.95;;;;;;;2.63;75.46;101271.75;1666857;86;21294;-55
2021/03/14 03:18:29;;;;;;;75.37;32.28;;;;;;;2.64;75.34;101271.31;1636243;86;21278;-57
2021/03/14 03:21:02;;;;;;;69.17;34.57;;;;;;;2.66;75.34;101277.25;1666976;86;21199;-55
2021/03/14 03:23:36;;;;;;;47.20;24.32;;;;;;;2.64;75.30;101275.19;1665439;85;21587;-55
2021/03/14 03:26:09;;;;;;;32.28;18.57;;;;;;;2.62;75.30;101276.55;1666593;86;21829;-55
2021/03/14 03:28:43;;;;;;;37.50;20.77;;;;;;;2.60;75.23;101275.74;1666795;86;21259;-55
2021/03/14 03:31:16;;;;;;;34.35;17.48;;;;;;;2.59;75.26;101274.52;1666749;86;21902;-55
2021/03/14 03:33:49;;;;;;;43.73;22.77;;;;;;;2.59;75.20;101274.08;1666694;86;21279;-55
2021/03/14 03:36:22;;;;;;;59.53;30.87;;;;;;;2.59;75.24;101277.11;1666673;86;21587;-55
2021/03/14 03:38:55;;;;;;;36.93;19.50;;;;;;;2.63;75.27;101276.07;1666480;86;21216;-55
2021/03/14 03:41:30;;;;;;;35.28;18.15;;;;;;;2.66;75.26;101274.66;1662187;86;22302;-56
2021/03/14 03:44:03;;;;;;;38.75;19.30;;;;;;;2.67;75.04;101272.48;1667094;86;21255;-55
2021/03/14 03:46:36;;;;;;;37.60;18.75;;;;;;;2.63;74.84;101283.38;1666832;86;21293;-55
2021/03/14 03:49:10;;;;;;;41.75;20.77;;;;;;;2.58;74.75;101280.61;1666838;86;21838;-55
2021/03/14 03:51:43;;;;;;;38.05;19.37;;;;;;;2.54;74.77;101281.17;1666267;86;21227;-56
2021/03/14 03:54:16;;;;;;;36.77;19.13;;;;;;;2.57;74.71;101274.59;1666134;85;21302;-55
2021/03/14 03:56:51;;;;;;;39.30;20.97;;;;;;;2.58;74.68;101278.03;1666744;86;21325;-56
2021/03/14 03:59:24;;;;;;;39.30;21.57;;;;;;;2.57;74.56;101278.47;1666796;86;21270;-55
2021/03/14 04:01:58;;;;;;;38.73;19.62;;;;;;;2.56;74.48;101280.66;1666678;86;21330;-55
2021/03/14 04:04:30;;;;;;;;;;;;;;;2.56;74.43;101280.66;1668874;86;21153;-55
2021/03/14 04:07:03;;;;;;;38.70;20.80;;;;;;;2.51;74.37;101282.58;1636208;86;20150;-55
2021/03/14 04:09:36;;;;;;;40.43;19.87;;;;;;;2.45;74.43;101275.08;1666594;86;21270;-55
2021/03/14 04:12:11;;;;;;;36.42;19.67;;;;;;;2.46;74.44;101272.05;1666590;86;21357;-55
2021/03/14 04:14:43;;;;;;;;;;;;;;;2.49;74.48;101266.29;1669255;86;21314;-55
2021/03/14 04:17:17;;;;;;;37.88;20.17;;;;;;;2.52;74.36;101266.18;1666432;86;20158;-55
2021/03/14 04:19:50;;;;;;;36.28;21.40;;;;;;;2.52;74.26;101267.91;1666543;86;21357;-55
2021/03/14 04:22:24;;;;;;;37.78;21.02;;;;;;;2.53;74.31;101267.02;1665139;86;21360;-55
2021/03/14 04:24:57;;;;;;;37.65;22.32;;;;;;;2.61;74.32;101268.84;1680654;85;21204;-56
2021/03/14 04:27:30;;;;;;;39.85;21.35;;;;;;;2.68;74.17;101266.39;1685879;85;21228;-55
2021/03/14 04:30:04;;;;;;;33.53;19.80;;;;;;;2.74;73.97;101262.28;1686333;85;21165;-56
2021/03/14 04:32:37;;;;;;;;;;;;;;;2.80;73.74;101261.17;1688474;85;21240;-55
2021/03/14 04:35:11;;;;;;;33.78;19.62;;;;;;;2.83;73.56;101266.23;1686168;85;20246;-57
2021/03/14 04:37:45;;;;;;;37.42;21.35;;;;;;;2.84;73.53;101261.02;1685639;85;21337;-54
2021/03/14 04:40:18;;;;;;;33.02;19.90;;;;;;;2.92;73.45;101270.57;1686144;85;21264;-55
2021/03/14 04:42:53;;;;;;;35.93;21.67;;;;;;;2.99;73.32;101268.12;1685807;85;21342;-54
2021/03/14 04:45:27;;;;;;;31.95;19.12;;;;;;;3.05;73.06;101266.59;1686226;85;21287;-57
2021/03/14 04:48:00;;;;;;;33.98;20.48;;;;;;;3.08;72.83;101275.97;1686072;85;21305;-56
2021/03/14 04:50:34;;;;;;;30.43;18.82;;;;;;;3.12;72.68;101274.92;1686426;85;21316;-58
2021/03/14 04:53:07;;;;;;;33.95;20.20;;;;;;;3.18;72.50;101278.09;1685283;84;21189;-56
2021/03/14 04:55:40;;;;;;;29.20;15.73;;;;;;;3.18;72.10;101284.55;1686199;85;21314;-57
2021/03/14 04:58:16;;;;;;;34.50;20.50;;;;;;;3.16;72.02;101291.55;1686026;85;21318;-57
2021/03/14 05:00:48;;;;;;;38.17;21.15;;;;;;;3.16;72.02;101287.67;1685281;85;21363;-57
2021/03/14 05:03:23;;;;;;;33.83;19.73;;;;;;;3.22;72.04;101293.89;1682354;85;21251;-57
2021/03/14 05:05:56;;;;;;;34.40;21.33;;;;;;;3.27;71.81;101288.05;1681875;85;21195;-57
2021/03/14 05:08:29;;;;;;;32.70;20.32;;;;;;;3.28;71.67;101292.77;1685887;83;21197;-57
2021/03/14 05:11:02;;;;;;;38.10;21.13;;;;;;;3.28;71.51;101291.48;1677799;84;21415;-56
2021/03/14 05:13:35;;;;;;;36.93;19.37;;;;;;;3.30;71.38;101296.13;1685860;85;21192;-57
2021/03/14 05:16:10;;;;;;;33.33;19.55;;;;;;;3.32;71.24;101299.49;1689037;85;21346;-57
2021/03/14 05:18:46;;;;;;;26.77;14.70;;;;;;;3.32;71.11;101302.08;1671072;83;21349;-57
2021/03/14 05:21:19;;;;;;;34.10;20.10;;;;;;;3.34;71.04;101307.58;1653045;87;21334;-58
2021/03/14 05:23:51;;;;;;;35.70;20.60;;;;;;;3.35;71.01;101309.28;1652847;83;21236;-58
2021/03/14 05:26:25;;;;;;;31.10;18.85;;;;;;;3.39;70.92;101305.64;1688739;84;21830;-57
2021/03/14 05:28:58;;;;;;;30.90;19.52;;;;;;;3.46;70.78;101307.98;1694226;84;21334;-57
2021/03/14 05:31:36;;;;;;;30.52;18.87;;;;;;;3.48;70.34;101312.64;1682989;85;21324;-56
2021/03/14 05:34:14;;;;;;;34.38;18.80;;;;;;;3.46;70.29;101318.34;1682631;85;21307;-57
2021/03/14 05:36:47;;;;;;;37.53;19.62;;;;;;;3.45;70.06;101323.12;1681816;85;21400;-58
2021/03/14 05:39:21;;;;;;;33.05;19.73;;;;;;;3.41;69.95;101325.02;1682330;85;21224;-57
2021/03/14 05:41:55;;;;;;;26.07;15.57;;;;;;;3.39;70.17;101322.47;1682123;85;21177;-57
2021/03/14 05:44:27;;;;;;;;;;;;;;;3.46;70.33;101326.11;1684685;85;21217;-57
2021/03/14 05:47:00;;;;;;;35.35;19.25;;;;;;;3.50;70.02;101329.80;1682139;85;20390;-57
2021/03/14 05:49:34;;;;;;;34.15;20.25;;;;;;;3.50;69.86;101334.13;1682506;85;21335;-56
2021/03/14 05:52:09;;;;;;;35.52;21.10;;;;;;;3.48;69.95;101338.53;1678406;85;21363;-58
2021/03/14 05:54:42;;;;;;;41.08;20.57;;;;;;;3.47;69.86;101336.38;1682387;84;21193;-58
2021/03/14 05:57:18;;;;;;;25.23;14.10;;;;;;;3.49;69.71;101341.52;1682923;85;21204;-57
2021/03/14 05:59:52;;;;;;;31.70;18.05;;;;;;;3.48;69.64;101344.55;1682436;85;21514;-57
2021/03/14 06:02:27;;;;;;;30.62;19.87;;;;;;;3.47;69.41;101345.89;1682326;85;21248;-58
2021/03/14 06:05:00;;;;;;;35.50;19.45;;;;;;;3.41;69.46;101351.71;1682403;85;21452;-57
2021/03/14 06:07:33;;;;;;;;;;;;;;;3.41;69.57;101358.66;1684946;85;21375;-57
2021/03/14 06:10:07;;;;;;;36.23;19.62;;;;;;;3.42;69.67;101352.56;1683364;85;20293;-57
2021/03/14 06:12:39;;;;;;;;;;;;;;;3.41;69.65;101354.30;1684992;84;21342;-58
2021/03/14 06:15:12;;;;;;;31.57;18.30;;;;;;;3.46;69.66;101354.14;1680840;85;20319;-58
2021/03/14 06:17:46;;;;;;;35.03;19.42;;;;;;;3.47;69.77;101353.21;1689894;83;22168;-58
2021/03/14 06:20:43;;;;;;;32.75;19.05;;;;;;;3.47;69.45;101351.07;1695814;84;21495;-58
2021/03/14 06:23:19;;;;;;;30.12;18.92;;;;;;;3.44;69.56;101357.70;1696018;83;22025;-57
2021/03/14 06:25:57;;;;;;;32.13;18.87;;;;;;;3.41;69.71;101359.48;1692271;83;21297;-57
2021/03/14 06:28:36;;;;;;;33.67;19.12;;;;;;;3.41;69.92;101362.06;1695342;84;21495;-57
2021/03/14 06:31:21;;;;;;;40.92;22.35;;;;;;;3.41;70.01;101362.06;1695520;84;22127;-56
2021/03/14 06:33:54;;;;;;;36.33;21.35;;;;;;;3.40;70.12;101364.28;1683864;83;21314;-59
2021/03/14 06:36:28;;;;;;;42.10;22.40;;;;;;;3.49;70.46;101355.28;1686274;85;21907;-59
2021/03/14 06:39:00;;;;;;;36.40;20.43;;;;;;;3.56;70.17;101361.06;1687479;85;21242;-56
2021/03/14 06:41:34;;;;;;;29.10;18.75;;;;;;;3.57;70.13;101361.43;1687259;85;21305;-59
2021/03/14 06:44:07;;;;;;;37.25;19.67;;;;;;;3.57;70.06;101357.55;1636339;85;21317;-57
2021/03/14 06:46:40;;;;;;;72.57;29.40;;;;;;;3.58;70.21;101362.68;1658322;85;21352;-57
2021/03/14 06:49:22;;;;;;;54.18;24.65;;;;;;;3.62;70.07;101360.78;1658160;85;21171;-56
2021/03/14 06:52:00;;;;;;;53.10;26.20;;;;;;;3.58;69.89;101349.73;1686936;85;21317;-56
2021/03/14 06:54:49;;;;;;;54.42;25.08;;;;;;;3.59;69.94;101344.92;1686948;84;21186;-56
2021/03/14 06:57:20;;;;;;;45.58;22.70;;;;;;;3.67;70.26;101345.45;1687045;85;21166;-56
2021/03/14 07:00:03;;;;;;;33.00;18.92;;;;;;;3.97;70.17;101343.26;1688183;85;21321;-56
2021/03/14 07:02:33;;;;;;;46.25;22.75;;;;;;;4.30;69.78;101338.33;1688020;85;21761;-56
2021/03/14 07:05:08;;;;;;;38.80;21.27;;;;;;;4.66;68.78;101337.45;1688317;85;21349;-57
2021/03/14 07:07:42;;;;;;;37.48;19.80;;;;;;;4.99;68.00;101334.98;1688072;85;21348;-57
2021/03/14 07:10:17;;;;;;;29.77;19.00;;;;;;;5.43;67.03;101323.70;1687547;85;21213;-57
2021/03/14 07:12:50;;;;;;;28.73;17.95;;;;;;;5.96;65.28;101326.17;1685253;85;21289;-57
2021/03/14 07:15:25;;;;;;;31.43;18.63;;;;;;;6.31;63.65;101324.27;1688181;85;21290;-58
2021/03/14 07:18:03;;;;;;;33.58;18.52;;;;;;;6.73;62.70;101321.94;1688422;85;21313;-58
2021/03/14 07:20:36;;;;;;;30.30;18.85;;;;;;;7.28;61.07;101316.53;1684076;84;22028;-58
2021/03/14 07:23:13;;;;;;;29.98;17.67;;;;;;;7.95;59.31;101319.05;1682546;85;21227;-57
2021/03/14 07:25:47;;;;;;;55.20;35.70;;;;;;;8.34;57.28;101308.78;1683227;85;21395;-59
2021/03/14 07:28:20;;;;;;;29.27;18.02;;;;;;;8.94;55.86;101305.33;1684147;85;21336;-59
2021/03/14 07:30:53;;;;;;;24.83;15.40;;;;;;;9.75;54.15;101288.48;1684070;85;21607;-60
2021/03/14 07:33:27;;;;;;;21.68;14.83;;;;;;;10.70;52.26;101290.83;1687805;85;21199;-60
2021/03/14 07:36:00;;;;;;;22.40;14.98;;;;;;;11.72;50.75;101287.95;1686288;85;21576;-59
2021/03/14 07:38:33;;;;;;;18.67;13.58;;;;;;;12.70;47.18;101283.16;1687629;85;21764;-60
2021/03/14 07:41:07;;;;;;;21.27;13.93;;;;;;;13.51;45.59;101278.11;1687875;85;21218;-61
2021/03/14 07:43:41;;;;;;;21.65;15.05;;;;;;;14.13;42.28;101276.17;1659303;85;21300;-59
2021/03/14 07:46:14;;;;;;;17.12;12.37;;;;;;;14.08;40.99;101271.78;1687800;85;21254;-60
2021/03/14 07:48:47;;;;;;;18.50;12.73;;;;;;;14.08;40.16;101273.58;1688280;85;22135;-59
2021/03/14 07:51:23;;;;;;;18.42;12.15;;;;;;;14.13;39.90;101271.38;1688476;85;21380;-59
2021/03/14 07:53:57;;;;;;;25.27;11.95;;;;;;;14.29;39.48;101265.59;1687886;83;21187;-59
2021/03/14 07:56:36;;;;;;;17.95;11.43;;;;;;;14.54;38.79;101256.74;1687701;85;21312;-59
2021/03/14 07:59:09;;;;;;;19.05;11.45;;;;;;;14.76;37.89;101256.93;1688275;85;21321;-60
2021/03/14 08:01:43;;;;;;;18.55;11.08;;;;;;;14.99;38.94;101250.91;1688367;85;21202;-59
2021/03/14 08:04:33;;;;;;;17.17;11.05;;;;;;;15.47;38.23;101251.69;1688152;85;21289;-59
2021/03/14 08:07:07;;;;;;;16.65;10.40;;;;;;;15.91;36.52;101258.88;1686640;85;21297;-60
2021/03/14 08:09:51;;;;;;;18.60;10.80;;;;;;;16.01;35.16;101253.55;1686563;85;21309;-59
2021/03/14 08:12:27;;;;;;;;;;;;;;;16.09;35.05;101250.53;1688951;85;22201;-59
2021/03/14 08:15:00;;;;;;;13.75;9.18;;;;;;;16.26;34.69;101250.22;1685969;85;20234;-59
2021/03/14 08:17:37;;;;;;;15.48;9.15;;;;;;;16.71;34.40;101251.05;1687189;85;21336;-58
2021/03/14 08:20:13;;;;;;;17.67;8.80;;;;;;;17.24;33.79;101249.63;1686310;85;21320;-61
2021/03/14 08:22:47;;;;;;;13.10;8.68;;;;;;;17.72;32.13;101246.47;1686704;85;21679;-59
2021/03/14 08:25:43;;;;;;;12.63;7.92;;;;;;;17.95;32.19;101257.36;1686409;85;21206;-59
2021/03/14 08:28:35;;;;;;;;;;;;;;;18.08;31.02;101255.91;1685871;85;21332;-59
2021/03/14 08:31:12;;;;;;;11.35;8.25;;;;;;;18.03;30.43;101262.18;1679345;85;20288;-60
2021/03/14 08:33:47;;;;;;;12.78;8.53;;;;;;;17.91;31.15;101255.50;1661197;86;22171;-61
2021/03/14 08:36:35;;;;;;;13.95;8.70;;;;;;;18.02;30.67;101268.98;1663041;86;21332;-60
2021/03/14 08:39:24;;;;;;;19.52;13.25;;;;;;;17.59;30.90;101262.47;1662378;86;21214;-59
2021/03/14 08:42:03;;;;;;;35.25;19.25;;;;;;;17.55;31.69;101263.78;1666296;85;21873;-60
2021/03/14 08:44:45;;;;;;;34.92;17.52;;;;;;;17.23;31.99;101269.64;1666452;86;21791;-59
2021/03/14 08:47:29;;;;;;;25.00;16.30;;;;;;;16.48;32.63;101276.20;1664445;86;21203;-58
2021/03/14 08:50:04;;;;;;;18.05;13.75;;;;;;;15.27;34.20;101284.32;1663694;86;21177;-58
2021/03/14 08:52:39;;;;;;;24.12;14.23;;;;;;;14.02;36.35;101285.95;1663525;86;21286;-57
2021/03/14 08:55:16;;;;;;;21.17;13.25;;;;;;;12.97;38.29;101291.90;1664397;86;21216;-59
2021/03/14 08:57:50;;;;;;;23.32;12.65;;;;;;;12.12;40.28;101289.60;1666252;86;21278;-58
2021/03/14 09:00:24;;;;;;;19.77;13.60;;;;;;;11.57;41.58;101292.17;1667183;86;21266;-57
2021/03/14 09:02:59;;;;;;;17.82;12.50;;;;;;;11.09;42.90;101296.23;1665266;86;21702;-58
2021/03/14 09:06:05;;;;;;;27.13;16.42;;;;;;;10.65;44.13;101299.98;1666942;86;21278;-58
2021/03/14 09:08:38;;;;;;;29.02;15.63;;;;;;;10.20;45.13;101305.89;1665243;86;21281;-58
2021/03/14 09:11:11;;;;;;;34.67;19.23;;;;;;;9.78;46.31;101303.97;1636495;86;21270;-58
2021/03/14 09:13:44;;;;;;;31.97;17.50;;;;;;;9.52;47.29;101303.61;1666165;86;21357;-58
2021/03/14 09:16:19;;;;;;;34.85;20.37;;;;;;;9.20;48.03;101311.44;1665087;86;21176;-58
2021/03/14 09:19:00;;;;;;;31.55;20.77;;;;;;;8.91;49.05;101312.05;1664708;86;21353;-57
2021/03/14 09:21:57;;;;;;;36.77;21.50;;;;;;;8.69;49.90;101321.73;1667181;86;21318;-57
2021/03/14 09:24:41;;;;;;;23.67;14.23;;;;;;;8.59;50.29;101316.75;1665455;86;21298;-59
2021/03/14 09:27:21;;;;;;;27.10;17.10;;;;;;;8.48;50.76;101315.73;1666948;86;21171;-58
2021/03/14 09:30:22;;;;;;;25.68;16.32;;;;;;;8.37;51.47;101316.88;1665582;86;21350;-58
2021/03/14 09:33:04;;;;;;;18.00;13.70;;;;;;;8.42;51.63;101312.22;1666329;85;21342;-58
2021/03/14 09:35:45;;;;;;;26.40;16.30;;;;;;;8.77;51.55;101308.19;1664905;86;21343;-58
2021/03/14 09:38:25;;;;;;;20.60;12.68;;;;;;;9.32;51.13;101300.17;1665841;86;21302;-60
2021/03/14 09:41:01;;;;;;;23.40;12.10;;;;;;;10.04;49.62;101306.92;1664792;86;21274;-57
2021/03/14 09:43:35;;;;;;;22.73;11.28;;;;;;;10.57;48.47;101308.39;1666261;86;21286;-57
2021/03/14 09:46:11;;;;;;;18.02;10.60;;;;;;;10.96;46.94;101316.92;1666438;86;21301;-57
2021/03/14 09:48:49;;;;;;;16.57;10.95;;;;;;;11.18;46.05;101302.09;1662677;86;21239;-57
2021/03/14 09:51:23;;;;;;;22.93;11.25;;;;;;;11.16;45.85;101290.89;1666821;86;21319;-57
2021/03/14 09:53:56;;;;;;;15.55;10.78;;;;;;;11.12;45.61;101293.86;1666413;85;21278;-57
2021/03/14 09:56:31;;;;;;;16.35;11.12;;;;;;;11.05;46.01;101302.66;1664624;86;21283;-58
2021/03/14 09:59:09;;;;;;;17.05;10.95;;;;;;;10.95;46.52;101301.66;1652404;86;21317;-57
2021/03/14 10:01:56;;;;;;;18.73;11.50;;;;;;;10.93;46.86;101299.64;1663814;86;21164;-57
2021/03/14 10:04:29;;;;;;;14.75;9.85;;;;;;;10.82;46.63;101293.86;1665791;86;21797;-56
2021/03/14 10:07:04;;;;;;;17.48;10.63;;;;;;;10.65;46.43;101285.09;1664800;86;21298;-58
2021/03/14 10:09:40;;;;;;;17.55;10.85;;;;;;;10.45;46.80;101288.80;1665867;86;21306;-57
2021/03/14 10:12:18;;;;;;;18.60;11.08;;;;;;;10.37;46.87;101286.72;1636114;86;21311;-56
2021/03/14 10:14:52;;;;;;;15.70;10.13;;;;;;;10.31;47.03;101311.19;1665857;86;21366;-55
2021/03/14 10:17:25;;;;;;;19.20;11.18;;;;;;;10.05;47.50;101281.60;1666727;86;21283;-57
2021/03/14 10:19:59;;;;;;;17.57;12.53;;;;;;;9.82;48.24;101276.66;1665355;86;21333;-56
2021/03/14 10:22:33;;;;;;;16.17;10.45;;;;;;;9.70;48.71;101278.81;1666756;86;21144;-56
2021/03/14 10:25:10;;;;;;;17.77;11.20;;;;;;;9.55;49.97;101281.66;1661713;86;21191;-56
2021/03/14 10:27:45;;;;;;;26.12;10.82;;;;;;;9.34;49.45;101290.45;1663320;86;21361;-56
2021/03/14 10:30:23;;;;;;;18.62;11.10;;;;;;;9.02;50.31;101275.64;1663910;86;21298;-56
2021/03/14 10:33:01;;;;;;;21.10;12.28;;;;;;;8.91;51.42;101287.23;1663092;86;21176;-56
2021/03/14 10:35:35;;;;;;;17.57;10.60;;;;;;;8.81;51.69;101282.27;1682070;85;21284;-56
2021/03/14 10:38:22;;;;;;;21.77;12.23;;;;;;;8.71;52.20;101287.25;1664662;86;21313;-56
2021/03/14 10:41:12;;;;;;;17.20;11.78;;;;;;;8.53;52.35;101286.27;1664660;86;21280;-57
2021/03/14 10:43:55;;;;;;;15.53;9.85;;;;;;;8.37;53.34;101285.11;1663845;86;21333;-56
2021/03/14 10:46:45;;;;;;;18.00;11.20;;;;;;;8.36;52.84;101280.81;1664312;86;21321;-57
2021/03/14 10:49:33;;;;;;;15.95;10.13;;;;;;;8.44;53.33;101279.88;1665305;86;21242;-56
2021/03/14 10:52:09;;;;;;;15.95;9.15;;;;;;;8.42;52.89;101277.84;1663164;86;21301;-58
2021/03/14 10:54:43;;;;;;;16.15;9.55;;;;;;;8.29;52.81;101278.23;1635335;86;21223;-57
2021/03/14 10:57:21;;;;;;;17.45;9.88;;;;;;;8.20;52.89;101262.28;1663014;86;21823;-56
2021/03/14 11:00:07;;;;;;;13.08;8.73;;;;;;;8.20;52.65;101272.72;1663824;86;21281;-57
2021/03/14 11:02:43;;;;;;;16.02;9.53;;;;;;;8.12;53.25;101274.50;1664167;86;21832;-57
2021/03/14 11:05:21;;;;;;;22.95;9.98;;;;;;;8.02;53.13;101249.45;1665499;86;21285;-57
2021/03/14 11:08:01;;;;;;;20.48;9.55;;;;;;;8.05;53.21;101260.16;1666064;86;21304;-58
2021/03/14 11:10:57;;;;;;;18.25;10.30;;;;;;;7.97;53.42;101252.84;1663906;86;21190;-58
2021/03/14 11:13:36;;;;;;;16.95;10.03;;;;;;;7.92;53.08;101252.29;1663511;86;21309;-58
2021/03/14 11:16:13;;;;;;;16.20;9.18;;;;;;;7.92;54.16;101243.16;1660549;86;21313;-57
2021/03/14 11:19:04;;;;;;;17.02;9.60;;;;;;;8.01;53.89;101244.34;1664228;86;21924;-56
2021/03/14 11:21:39;;;;;;;16.27;8.48;;;;;;;8.05;54.39;101244.52;1664534;86;21324;-56
2021/03/14 11:24:14;;;;;;;17.23;9.60;;;;;;;8.02;53.64;101248.16;1665983;86;21305;-57
2021/03/14 11:26:49;;;;;;;12.20;8.08;;;;;;;7.96;53.64;101234.20;1664883;86;21313;-56
2021/03/14 11:29:23;;;;;;;15.45;8.58;;;;;;;7.93;53.75;101240.91;1665744;86;21241;-57
2021/03/14 11:31:58;;;;;;;20.08;8.70;;;;;;;7.90;53.74;101234.61;1664360;86;21178;-56
2021/03/14 11:34:31;;;;;;;12.07;7.85;;;;;;;7.87;53.67;101233.48;1665730;86;21379;-57
2021/03/14 11:37:23;;;;;;;13.15;8.70;;;;;;;7.83;53.83;101245.50;1668716;85;21299;-56
2021/03/14 11:40:09;;;;;;;16.20;8.78;;;;;;;7.79;54.14;101227.05;1678364;85;21286;-57
2021/03/14 11:42:44;;;;;;;11.57;7.70;;;;;;;7.83;53.68;101226.77;1677523;85;21318;-56
2021/03/14 11:45:19;;;;;;;13.28;7.70;;;;;;;7.95;54.00;101226.49;1661285;86;21327;-57
2021/03/14 11:47:52;;;;;;;17.42;8.28;;;;;;;8.06;53.49;101226.19;1666006;86;21882;-56
2021/03/14 11:50:43;;;;;;;12.07;8.10;;;;;;;8.12;52.92;101236.22;1664356;86;21196;-56
2021/03/14 11:53:19;;;;;;;11.60;7.85;;;;;;;8.17;53.12;101230.70;1665917;85;21172;-56
2021/03/14 11:55:55;;;;;;;20.30;8.88;;;;;;;8.18;53.23;101229.78;1664583;86;21179;-56
2021/03/14 11:58:29;;;;;;;12.15;8.33;;;;;;;8.23;53.22;101215.14;1665788;86;21778;-56